Wetterdaten: Woche 07.01.08 - 13.01.08 (KW2)
Datum Zeit Temperatur Luftfeuchte Luftdruck Niederschlag Wind Richtung Sonnenschein Solar Taupunkt Windchill Windben
07.01.2008 00:00 3.0 C 96 % 1019.4 hPa 0.0 l/m 0.0 km/h (0 Bft) N 0.00 h 0 W/m 2.4 C 3.0 C 0.1 km/h (0 Bft)
07.01.2008 01:00 3.1 C 96 % 1018.7 hPa 0.0 l/m 0.3 km/h (0 Bft) SO 0.00 h 0 W/m 2.5 C 3.1 C 0.6 km/h (0 Bft)
07.01.2008 02:00 3.1 C 97 % 1017.8 hPa 0.0 l/m 0.3 km/h (0 Bft) SO 0.00 h 0 W/m 2.6 C 3.1 C 0.9 km/h (0 Bft)
07.01.2008 03:00 3.3 C 97 % 1017.2 hPa 0.0 l/m 1.3 km/h (1 Bft) N 0.00 h 0 W/m 2.8 C 3.2 C 2.7 km/h (1 Bft)
07.01.2008 04:00 3.3 C 97 % 1016.3 hPa 0.0 l/m 1.3 km/h (1 Bft) N 0.00 h 0 W/m 2.9 C 3.3 C 2.6 km/h (1 Bft)
07.01.2008 05:00 3.5 C 97 % 1015.6 hPa 2.2 l/m 0.3 km/h (0 Bft) N 0.00 h 0 W/m 3.1 C 3.5 C 0.9 km/h (0 Bft)
07.01.2008 06:00 3.8 C 98 % 1014.9 hPa 2.6 l/m 0.7 km/h (0 Bft) N 0.00 h 0 W/m 3.5 C 3.8 C 1.7 km/h (1 Bft)
07.01.2008 07:00 4.1 C 98 % 1014.9 hPa 1.2 l/m 1.3 km/h (1 Bft) N-NW 0.00 h 0 W/m 3.8 C 4.1 C 2.9 km/h (1 Bft)
07.01.2008 08:00 4.9 C 99 % 1015.6 hPa 3.4 l/m 1.8 km/h (1 Bft) O 0.00 h 6 W/m 4.7 C 4.7 C 3.6 km/h (1 Bft)
07.01.2008 09:00 7.3 C 100 % 1015.6 hPa 0.8 l/m 4.9 km/h (1 Bft) S-SW 0.00 h 22 W/m 7.3 C 6.7 C 9.5 km/h (2 Bft)
07.01.2008 10:00 8.3 C 98 % 1016.6 hPa 1.2 l/m 17.9 km/h (3 Bft) W 0.00 h 59 W/m 8.0 C 5.7 C 26.3 km/h (4 Bft)
07.01.2008 11:00 9.4 C 83 % 1018.4 hPa 0.0 l/m 20.8 km/h (4 Bft) W 0.38 h 167 W/m 6.6 C 6.8 C 30.7 km/h (5 Bft)
07.01.2008 12:00 9.4 C 80 % 1019.4 hPa 0.2 l/m 18.2 km/h (3 Bft) W 0.33 h 160 W/m 6.0 C 7.2 C 28.2 km/h (4 Bft)
07.01.2008 13:00 10.0 C 69 % 1020.3 hPa 0.0 l/m 16.2 km/h (3 Bft) W 1.00 h 280 W/m 4.4 C 8.8 C 24.3 km/h (4 Bft)
07.01.2008 14:00 10.1 C 66 % 1020.9 hPa 0.0 l/m 15.5 km/h (3 Bft) W 0.55 h 168 W/m 4.0 C 9.3 C 23.4 km/h (4 Bft)
07.01.2008 15:00 8.7 C 72 % 1022.3 hPa 0.0 l/m 15.7 km/h (3 Bft) W 0.00 h 41 W/m 4.0 C 6.3 C 23.0 km/h (4 Bft)
07.01.2008 16:00 8.3 C 72 % 1022.9 hPa 0.0 l/m 12.4 km/h (3 Bft) W 0.02 h 14 W/m 3.5 C 6.2 C 19.0 km/h (3 Bft)
07.01.2008 17:00 7.7 C 73 % 1023.9 hPa 0.0 l/m 8.4 km/h (2 Bft) W-SW 0.00 h 0 W/m 3.1 C 6.3 C 13.4 km/h (3 Bft)
07.01.2008 18:00 7.0 C 74 % 1024.7 hPa 0.0 l/m 4.5 km/h (1 Bft) W-SW 0.00 h 0 W/m 2.7 C 6.4 C 8.2 km/h (2 Bft)
07.01.2008 19:00 6.3 C 75 % 1025.1 hPa 0.0 l/m 1.5 km/h (1 Bft) S 0.00 h 0 W/m 2.2 C 6.2 C 3.0 km/h (1 Bft)
07.01.2008 20:00 6.0 C 74 % 1025.3 hPa 0.0 l/m 5.3 km/h (1 Bft) S-SO 0.00 h 0 W/m 1.6 C 5.1 C 8.1 km/h (2 Bft)
07.01.2008 21:00 4.2 C 80 % 1025.2 hPa 0.0 l/m 2.1 km/h (1 Bft) S 0.00 h 0 W/m 1.2 C 3.9 C 4.1 km/h (1 Bft)
07.01.2008 22:00 2.9 C 85 % 1025.7 hPa 0.0 l/m 2.0 km/h (1 Bft) O 0.00 h 0 W/m 0.6 C 2.6 C 3.1 km/h (1 Bft)
07.01.2008 23:00 2.1 C 87 % 1025.8 hPa 0.0 l/m 3.0 km/h (1 Bft) O-SO 0.00 h 0 W/m 0.2 C 1.5 C 4.2 km/h (1 Bft)
08.01.2008 00:00 1.8 C 87 % 1026.1 hPa 0.0 l/m 1.2 km/h (1 Bft) O-SO 0.00 h 0 W/m -0.0 C 1.8 C 2.2 km/h (1 Bft)
08.01.2008 01:00 1.9 C 87 % 1026.3 hPa 0.0 l/m 4.4 km/h (1 Bft) O-SO 0.00 h 0 W/m -0.1 C 0.9 C 6.2 km/h (2 Bft)
08.01.2008 02:00 2.2 C 83 % 1026.3 hPa 0.0 l/m 3.6 km/h (1 Bft) O-SO 0.00 h 0 W/m -0.3 C 1.5 C 4.8 km/h (1 Bft)
08.01.2008 03:00 1.1 C 88 % 1026.6 hPa 0.0 l/m 2.4 km/h (1 Bft) O-SO 0.00 h 0 W/m -0.7 C 0.8 C 4.0 km/h (1 Bft)
08.01.2008 04:00 1.4 C 90 % 1026.8 hPa 0.0 l/m 5.2 km/h (1 Bft) S-SO 0.00 h 0 W/m -0.1 C 0.2 C 7.8 km/h (2 Bft)
08.01.2008 05:00 1.1 C 89 % 1027.1 hPa 0.0 l/m 3.3 km/h (1 Bft) SO 0.00 h 0 W/m -0.4 C 0.9 C 5.2 km/h (1 Bft)
08.01.2008 06:00 0.6 C 90 % 1027.2 hPa 0.0 l/m 2.3 km/h (1 Bft) O-SO 0.00 h 0 W/m -0.9 C 0.2 C 3.5 km/h (1 Bft)
08.01.2008 07:00 -0.3 C 91 % 1027.4 hPa 0.0 l/m 0.6 km/h (0 Bft) O-SO 0.00 h 0 W/m -1.6 C -0.3 C 1.5 km/h (1 Bft)
08.01.2008 08:00 -0.9 C 92 % 1027.5 hPa 0.0 l/m 0.2 km/h (0 Bft) O-SO 0.15 h 20 W/m -2.0 C -0.9 C 0.5 km/h (0 Bft)
08.01.2008 09:00 -0.9 C 95 % 1027.6 hPa 0.0 l/m 0.0 km/h (0 Bft) N 0.42 h 80 W/m -1.6 C -0.9 C 0.0 km/h (0 Bft)
08.01.2008 10:00 0.3 C 96 % 1027.3 hPa 0.0 l/m 0.2 km/h (0 Bft) O-SO 0.03 h 64 W/m -0.2 C 0.3 C 0.7 km/h (0 Bft)
08.01.2008 11:00 2.4 C 88 % 1026.8 hPa 0.0 l/m 0.5 km/h (0 Bft) O-SO 0.97 h 247 W/m 0.6 C 2.4 C 1.5 km/h (1 Bft)
08.01.2008 12:00 3.8 C 82 % 1026.1 hPa 0.0 l/m 0.7 km/h (0 Bft) O-SO 0.98 h 238 W/m 0.9 C 3.8 C 2.1 km/h (1 Bft)
08.01.2008 13:00 5.0 C 78 % 1025.3 hPa 0.0 l/m 0.7 km/h (0 Bft) O-SO 1.00 h 220 W/m 1.4 C 5.0 C 1.8 km/h (1 Bft)
08.01.2008 14:00 5.7 C 76 % 1024.4 hPa 0.0 l/m 0.6 km/h (0 Bft) O-SO 0.58 h 142 W/m 1.8 C 5.7 C 2.1 km/h (1 Bft)
08.01.2008 15:00 5.9 C 74 % 1024.0 hPa 0.0 l/m 2.0 km/h (1 Bft) O-SO 0.60 h 81 W/m 1.7 C 5.9 C 3.3 km/h (1 Bft)
08.01.2008 16:00 4.6 C 79 % 1023.9 hPa 0.0 l/m 1.0 km/h (0 Bft) O-SO 0.05 h 16 W/m 1.3 C 4.6 C 1.9 km/h (1 Bft)
08.01.2008 17:00 2.3 C 87 % 1023.7 hPa 0.0 l/m 0.7 km/h (0 Bft) O-SO 0.00 h 0 W/m 0.3 C 2.3 C 1.6 km/h (1 Bft)
08.01.2008 18:00 0.8 C 91 % 1023.7 hPa 0.0 l/m 1.6 km/h (1 Bft) O-SO 0.00 h 0 W/m -0.6 C 0.7 C 2.6 km/h (1 Bft)
08.01.2008 19:00 0.2 C 92 % 1023.7 hPa 0.0 l/m 1.6 km/h (1 Bft) O-SO 0.00 h 0 W/m -0.9 C 0.2 C 2.6 km/h (1 Bft)
08.01.2008 20:00 -0.4 C 94 % 1023.4 hPa 0.0 l/m 2.3 km/h (1 Bft) O-SO 0.00 h 0 W/m -1.2 C -0.6 C 3.4 km/h (1 Bft)
08.01.2008 21:00 -0.9 C 95 % 1022.9 hPa 0.0 l/m 1.5 km/h (1 Bft) O-SO 0.00 h 0 W/m -1.6 C -1.0 C 2.5 km/h (1 Bft)
08.01.2008 22:00 -1.2 C 97 % 1022.4 hPa 0.0 l/m 1.6 km/h (1 Bft) O-SO 0.00 h 0 W/m -1.7 C -1.2 C 2.5 km/h (1 Bft)
08.01.2008 23:00 -1.6 C 97 % 1022.3 hPa 0.0 l/m 0.2 km/h (0 Bft) O-SO 0.00 h 0 W/m -2.0 C -1.6 C 0.5 km/h (0 Bft)
09.01.2008 00:00 -2.0 C 97 % 1022.1 hPa 0.0 l/m 0.1 km/h (0 Bft) O-SO 0.00 h 0 W/m -2.4 C -2.0 C 0.4 km/h (0 Bft)
09.01.2008 01:00 -1.8 C 98 % 1021.7 hPa 0.0 l/m 1.1 km/h (0 Bft) O-SO 0.00 h 0 W/m -2.1 C -1.8 C 2.3 km/h (1 Bft)
09.01.2008 02:00 -1.1 C 99 % 1021.6 hPa 0.0 l/m 1.1 km/h (1 Bft) O-SO 0.00 h 0 W/m -1.2 C -1.1 C 2.7 km/h (1 Bft)
09.01.2008 03:00 -0.8 C 99 % 1021.3 hPa 0.0 l/m 1.9 km/h (1 Bft) O-SO 0.00 h 0 W/m -0.9 C -1.0 C 3.5 km/h (1 Bft)
09.01.2008 04:00 0.2 C 96 % 1021.0 hPa 0.0 l/m 1.3 km/h (1 Bft) SO 0.00 h 0 W/m -0.4 C 0.2 C 2.8 km/h (1 Bft)
09.01.2008 05:00 1.0 C 88 % 1021.1 hPa 0.0 l/m 1.5 km/h (1 Bft) S-SO 0.00 h 0 W/m -0.7 C 0.9 C 3.1 km/h (1 Bft)
09.01.2008 06:00 1.0 C 88 % 1021.2 hPa 0.0 l/m 1.0 km/h (0 Bft) S 0.00 h 0 W/m -0.7 C 1.0 C 2.1 km/h (1 Bft)
09.01.2008 07:00 0.9 C 90 % 1021.3 hPa 0.0 l/m 1.3 km/h (1 Bft) N-NO 0.00 h 0 W/m -0.6 C 0.9 C 2.4 km/h (1 Bft)
09.01.2008 08:00 0.8 C 90 % 1021.6 hPa 0.0 l/m 0.2 km/h (0 Bft) N-NO 0.00 h 6 W/m -0.7 C 0.8 C 0.5 km/h (0 Bft)
09.01.2008 09:00 0.7 C 91 % 1022.1 hPa 0.0 l/m 0.6 km/h (0 Bft) N-NO 0.00 h 15 W/m -0.5 C 0.7 C 1.2 km/h (1 Bft)
09.01.2008 10:00 1.0 C 93 % 1022.5 hPa 0.0 l/m 0.0 km/h (0 Bft) N-NO 0.00 h 67 W/m 0.1 C 1.0 C 0.3 km/h (0 Bft)
09.01.2008 11:00 1.5 C 95 % 1022.5 hPa 0.0 l/m 0.4 km/h (0 Bft) N-NO 0.00 h 64 W/m 0.9 C 1.5 C 1.1 km/h (1 Bft)
09.01.2008 12:00 2.3 C 97 % 1022.1 hPa 0.2 l/m 0.8 km/h (0 Bft) N-NO 0.00 h 77 W/m 1.9 C 2.3 C 2.1 km/h (1 Bft)
09.01.2008 13:00 3.7 C 97 % 1021.4 hPa 0.2 l/m 3.8 km/h (1 Bft) S-SO 0.00 h 59 W/m 3.3 C 2.9 C 6.8 km/h (2 Bft)
09.01.2008 14:00 5.0 C 91 % 1020.8 hPa 0.0 l/m 6.0 km/h (2 Bft) S 0.00 h 65 W/m 3.6 C 3.9 C 11.4 km/h (2 Bft)
09.01.2008 15:00 5.6 C 88 % 1020.2 hPa 0.0 l/m 2.8 km/h (1 Bft) SW 0.00 h 31 W/m 3.8 C 5.4 C 5.9 km/h (2 Bft)
09.01.2008 16:00 6.0 C 86 % 1019.9 hPa 0.0 l/m 2.1 km/h (1 Bft) SW 0.00 h 11 W/m 3.8 C 5.9 C 4.2 km/h (1 Bft)
09.01.2008 17:00 5.1 C 89 % 1020.6 hPa 0.0 l/m 1.1 km/h (0 Bft) NW 0.00 h 0 W/m 3.4 C 5.1 C 2.4 km/h (1 Bft)
09.01.2008 18:00 4.5 C 91 % 1021.2 hPa 0.0 l/m 0.1 km/h (0 Bft) NW 0.00 h 0 W/m 3.2 C 4.5 C 0.5 km/h (0 Bft)
09.01.2008 19:00 4.2 C 93 % 1021.8 hPa 0.0 l/m 0.2 km/h (0 Bft) NW 0.00 h 0 W/m 3.2 C 4.2 C 0.7 km/h (0 Bft)
09.01.2008 20:00 3.9 C 94 % 1022.3 hPa 0.0 l/m 1.4 km/h (1 Bft) NW 0.00 h 0 W/m 3.1 C 3.9 C 2.3 km/h (1 Bft)
09.01.2008 21:00 3.9 C 96 % 1022.6 hPa 0.0 l/m 0.3 km/h (0 Bft) NW 0.00 h 0 W/m 3.3 C 3.9 C 0.6 km/h (0 Bft)
09.01.2008 22:00 3.9 C 97 % 1022.5 hPa 0.0 l/m 0.4 km/h (0 Bft) NW 0.00 h 0 W/m 3.5 C 3.9 C 1.0 km/h (0 Bft)
09.01.2008 23:00 3.9 C 97 % 1022.6 hPa 0.0 l/m 1.1 km/h (1 Bft) N 0.00 h 0 W/m 3.5 C 3.8 C 1.7 km/h (1 Bft)
10.01.2008 00:00 3.9 C 97 % 1022.5 hPa 0.0 l/m 0.7 km/h (0 Bft) O-SO 0.00 h 0 W/m 3.5 C 3.9 C 1.6 km/h (1 Bft)
10.01.2008 01:00 4.2 C 98 % 1022.1 hPa 0.0 l/m 0.5 km/h (0 Bft) O-SO 0.00 h 0 W/m 3.9 C 4.2 C 1.4 km/h (1 Bft)
10.01.2008 02:00 3.8 C 97 % 1022.1 hPa 0.0 l/m 1.2 km/h (1 Bft) O-SO 0.00 h 0 W/m 3.5 C 3.8 C 2.4 km/h (1 Bft)
10.01.2008 03:00 3.3 C 97 % 1022.2 hPa 0.0 l/m 1.9 km/h (1 Bft) O-SO 0.00 h 0 W/m 2.9 C 3.2 C 3.2 km/h (1 Bft)
10.01.2008 04:00 3.1 C 96 % 1021.9 hPa 0.0 l/m 3.3 km/h (1 Bft) O-SO 0.00 h 0 W/m 2.6 C 2.9 C 4.9 km/h (1 Bft)
10.01.2008 05:00 3.0 C 94 % 1021.8 hPa 0.0 l/m 2.9 km/h (1 Bft) O-SO 0.00 h 0 W/m 2.2 C 2.9 C 4.4 km/h (1 Bft)
10.01.2008 06:00 2.8 C 93 % 1021.8 hPa 0.0 l/m 0.9 km/h (0 Bft) O-SO 0.00 h 0 W/m 1.8 C 2.8 C 1.9 km/h (1 Bft)
10.01.2008 07:00 2.2 C 93 % 1022.1 hPa 0.0 l/m 1.8 km/h (1 Bft) O-SO 0.00 h 0 W/m 1.2 C 2.1 C 3.1 km/h (1 Bft)
10.01.2008 08:00 2.0 C 94 % 1022.4 hPa 0.0 l/m 0.8 km/h (0 Bft) O-SO 0.08 h 17 W/m 1.1 C 2.0 C 1.8 km/h (1 Bft)
10.01.2008 09:00 1.1 C 95 % 1022.7 hPa 0.0 l/m 0.6 km/h (0 Bft) O-SO 0.25 h 69 W/m 0.3 C 1.1 C 1.5 km/h (1 Bft)
10.01.2008 10:00 1.4 C 99 % 1023.1 hPa 0.0 l/m 1.1 km/h (1 Bft) O-SO 0.13 h 104 W/m 1.2 C 1.4 C 2.3 km/h (1 Bft)
10.01.2008 11:00 3.2 C 97 % 1022.8 hPa 0.0 l/m 1.6 km/h (1 Bft) O-NO 0.95 h 231 W/m 2.8 C 3.2 C 3.0 km/h (1 Bft)
10.01.2008 12:00 5.8 C 85 % 1021.7 hPa 0.0 l/m 1.1 km/h (0 Bft) O-NO 1.00 h 267 W/m 3.3 C 5.8 C 2.6 km/h (1 Bft)
10.01.2008 13:00 7.9 C 75 % 1020.6 hPa 0.0 l/m 3.1 km/h (1 Bft) S 0.98 h 258 W/m 3.8 C 7.7 C 6.3 km/h (2 Bft)
10.01.2008 14:00 8.3 C 75 % 1019.9 hPa 0.0 l/m 2.0 km/h (1 Bft) S-SO 0.80 h 165 W/m 4.0 C 8.2 C 4.3 km/h (1 Bft)
10.01.2008 15:00 8.5 C 74 % 1019.7 hPa 0.0 l/m 1.3 km/h (1 Bft) O-NO 0.77 h 94 W/m 4.1 C 8.4 C 3.0 km/h (1 Bft)
10.01.2008 16:00 7.0 C 82 % 1019.5 hPa 0.0 l/m 0.2 km/h (0 Bft) S 0.58 h 28 W/m 4.1 C 7.0 C 1.0 km/h (0 Bft)
10.01.2008 17:00 5.0 C 89 % 1019.6 hPa 0.0 l/m 0.1 km/h (0 Bft) S 0.00 h 5 W/m 3.3 C 5.0 C 0.5 km/h (0 Bft)
10.01.2008 18:00 3.7 C 94 % 1019.8 hPa 0.0 l/m 0.0 km/h (0 Bft) N 0.00 h 0 W/m 2.7 C 3.7 C 0.1 km/h (0 Bft)
10.01.2008 19:00 2.7 C 96 % 1019.9 hPa 0.0 l/m 0.2 km/h (0 Bft) S 0.00 h 0 W/m 2.1 C 2.7 C 0.7 km/h (0 Bft)
10.01.2008 20:00 2.0 C 97 % 1019.9 hPa 0.0 l/m 0.1 km/h (0 Bft) O-SO 0.00 h 0 W/m 1.6 C 2.0 C 0.4 km/h (0 Bft)
10.01.2008 21:00 1.4 C 98 % 1020.0 hPa 0.0 l/m 0.4 km/h (0 Bft) O-SO 0.00 h 0 W/m 1.1 C 1.4 C 1.0 km/h (0 Bft)
10.01.2008 22:00 0.8 C 98 % 1019.6 hPa 0.0 l/m 0.5 km/h (0 Bft) O-SO 0.00 h 0 W/m 0.6 C 0.8 C 0.9 km/h (0 Bft)
10.01.2008 23:00 0.2 C 99 % 1019.4 hPa 0.0 l/m 0.5 km/h (0 Bft) O-SO 0.00 h 0 W/m 0.1 C 0.2 C 1.0 km/h (0 Bft)
11.01.2008 00:00 -0.2 C 99 % 1019.0 hPa 0.0 l/m 2.0 km/h (1 Bft) O-SO 0.00 h 0 W/m -0.3 C -0.5 C 2.8 km/h (1 Bft)
11.01.2008 01:00 -0.3 C 99 % 1018.4 hPa 0.0 l/m 0.6 km/h (0 Bft) O-SO 0.00 h 0 W/m -0.4 C -0.3 C 1.2 km/h (1 Bft)
11.01.2008 02:00 -0.6 C 100 % 1018.0 hPa 0.0 l/m 0.4 km/h (0 Bft) O-SO 0.00 h 0 W/m -0.7 C -0.6 C 1.1 km/h (0 Bft)
11.01.2008 03:00 -0.4 C 100 % 1017.5 hPa 0.0 l/m 0.5 km/h (0 Bft) O-SO 0.00 h 0 W/m -0.4 C -0.5 C 1.4 km/h (1 Bft)
11.01.2008 04:00 0.3 C 100 % 1016.8 hPa 0.0 l/m 1.7 km/h (1 Bft) SO 0.00 h 0 W/m 0.3 C 0.2 C 3.3 km/h (1 Bft)
11.01.2008 05:00 0.6 C 100 % 1016.5 hPa 0.0 l/m 1.5 km/h (1 Bft) SO 0.00 h 0 W/m 0.6 C 0.3 C 2.7 km/h (1 Bft)
11.01.2008 06:00 0.8 C 100 % 1015.9 hPa 0.0 l/m 0.4 km/h (0 Bft) SO 0.00 h 0 W/m 0.8 C 0.8 C 0.9 km/h (0 Bft)
11.01.2008 07:00 0.4 C 100 % 1015.5 hPa 0.0 l/m 1.2 km/h (1 Bft) SO 0.00 h 0 W/m 0.4 C 0.2 C 2.2 km/h (1 Bft)
11.01.2008 08:00 -0.1 C 100 % 1015.1 hPa 0.0 l/m 0.7 km/h (0 Bft) O-SO 0.20 h 20 W/m -0.1 C -0.1 C 1.4 km/h (1 Bft)
11.01.2008 09:00 -0.1 C 100 % 1014.4 hPa 0.0 l/m 0.7 km/h (0 Bft) O-SO 0.03 h 62 W/m -0.1 C -0.1 C 1.5 km/h (1 Bft)
11.01.2008 10:00 0.2 C 100 % 1013.7 hPa 0.0 l/m 0.8 km/h (0 Bft) O-SO 0.07 h 72 W/m 0.2 C 0.2 C 1.7 km/h (1 Bft)
11.01.2008 11:00 1.5 C 100 % 1012.6 hPa 0.0 l/m 0.8 km/h (0 Bft) O-SO 0.73 h 233 W/m 1.5 C 1.5 C 1.4 km/h (1 Bft)
11.01.2008 12:00 4.3 C 93 % 1010.9 hPa 0.0 l/m 0.7 km/h (0 Bft) O-SO 0.97 h 269 W/m 3.2 C 4.3 C 1.9 km/h (1 Bft)
11.01.2008 13:00 7.2 C 75 % 1009.3 hPa 0.0 l/m 0.6 km/h (0 Bft) SO 1.00 h 266 W/m 3.0 C 7.2 C 2.0 km/h (1 Bft)
11.01.2008 14:00 8.9 C 65 % 1008.1 hPa 0.0 l/m 2.2 km/h (1 Bft) S-SO 0.85 h 191 W/m 2.6 C 8.9 C 4.4 km/h (1 Bft)
11.01.2008 15:00 9.1 C 64 % 1007.1 hPa 0.0 l/m 1.5 km/h (1 Bft) S 0.85 h 105 W/m 2.6 C 9.1 C 3.5 km/h (1 Bft)
11.01.2008 16:00 7.4 C 70 % 1006.4 hPa 0.0 l/m 2.5 km/h (1 Bft) SO 0.07 h 27 W/m 2.2 C 7.2 C 3.6 km/h (1 Bft)
11.01.2008 17:00 4.7 C 80 % 1006.0 hPa 0.0 l/m 4.5 km/h (1 Bft) O-SO 0.00 h 0 W/m 1.5 C 4.0 C 6.0 km/h (2 Bft)
11.01.2008 18:00 2.7 C 86 % 1005.8 hPa 0.0 l/m 1.6 km/h (1 Bft) SO 0.00 h 0 W/m 0.6 C 2.5 C 2.5 km/h (1 Bft)
11.01.2008 19:00 2.0 C 89 % 1005.2 hPa 0.0 l/m 1.8 km/h (1 Bft) SO 0.00 h 0 W/m 0.3 C 1.8 C 2.8 km/h (1 Bft)
11.01.2008 20:00 1.5 C 90 % 1004.8 hPa 0.0 l/m 1.4 km/h (1 Bft) SO 0.00 h 0 W/m 0.1 C 1.4 C 2.0 km/h (1 Bft)
11.01.2008 21:00 1.4 C 90 % 1004.8 hPa 0.0 l/m 2.9 km/h (1 Bft) SO 0.00 h 0 W/m 0.0 C 1.0 C 4.2 km/h (1 Bft)
11.01.2008 22:00 1.6 C 90 % 1004.9 hPa 0.0 l/m 3.1 km/h (1 Bft) O-SO 0.00 h 0 W/m 0.2 C 1.2 C 4.5 km/h (1 Bft)
11.01.2008 23:00 1.9 C 90 % 1004.8 hPa 0.0 l/m 1.6 km/h (1 Bft) O-SO 0.00 h 0 W/m 0.3 C 1.7 C 2.6 km/h (1 Bft)
12.01.2008 00:00 1.0 C 93 % 1004.2 hPa 0.0 l/m 1.4 km/h (1 Bft) O-SO 0.00 h 0 W/m -0.0 C 0.9 C 2.4 km/h (1 Bft)
12.01.2008 01:00 0.6 C 95 % 1004.4 hPa 0.0 l/m 3.7 km/h (1 Bft) O-SO 0.00 h 0 W/m -0.1 C -0.4 C 5.3 km/h (1 Bft)
12.01.2008 02:00 3.2 C 92 % 1005.5 hPa 0.0 l/m 7.3 km/h (2 Bft) N-NW 0.00 h 0 W/m 1.9 C 1.7 C 11.5 km/h (2 Bft)
12.01.2008 03:00 5.8 C 77 % 1006.0 hPa 0.0 l/m 15.1 km/h (3 Bft) W-NW 0.00 h 0 W/m 2.1 C 2.8 C 23.4 km/h (4 Bft)
12.01.2008 04:00 5.1 C 77 % 1006.8 hPa 0.0 l/m 6.3 km/h (2 Bft) W-NW 0.00 h 0 W/m 1.5 C 4.0 C 10.1 km/h (2 Bft)
12.01.2008 05:00 4.6 C 82 % 1007.4 hPa 0.0 l/m 6.0 km/h (2 Bft) W 0.00 h 0 W/m 1.8 C 3.5 C 9.3 km/h (2 Bft)
12.01.2008 06:00 3.8 C 89 % 1008.4 hPa 0.4 l/m 4.5 km/h (1 Bft) S-SW 0.00 h 0 W/m 2.1 C 3.1 C 8.7 km/h (2 Bft)
12.01.2008 07:00 3.0 C 93 % 1009.5 hPa 0.8 l/m 4.1 km/h (1 Bft) S 0.00 h 0 W/m 2.0 C 2.4 C 8.2 km/h (2 Bft)
12.01.2008 08:00 2.6 C 95 % 1010.3 hPa 0.4 l/m 2.9 km/h (1 Bft) S-SW 0.00 h 8 W/m 2.0 C 2.5 C 6.4 km/h (2 Bft)
12.01.2008 09:00 2.7 C 96 % 1011.1 hPa 0.2 l/m 3.1 km/h (1 Bft) S-SW 0.00 h 22 W/m 2.1 C 2.6 C 6.6 km/h (2 Bft)
12.01.2008 10:00 2.9 C 97 % 1011.8 hPa 0.0 l/m 3.0 km/h (1 Bft) S-SW 0.00 h 42 W/m 2.5 C 2.8 C 6.2 km/h (2 Bft)
12.01.2008 11:00 3.2 C 97 % 1012.6 hPa 0.2 l/m 3.0 km/h (1 Bft) S-SW 0.00 h 50 W/m 2.8 C 3.0 C 6.3 km/h (2 Bft)
12.01.2008 12:00 3.3 C 97 % 1013.3 hPa 0.0 l/m 3.7 km/h (1 Bft) S-SW 0.00 h 43 W/m 2.8 C 2.9 C 7.0 km/h (2 Bft)
12.01.2008 13:00 3.5 C 95 % 1013.7 hPa 0.0 l/m 3.0 km/h (1 Bft) S 0.00 h 40 W/m 2.9 C 3.3 C 5.9 km/h (2 Bft)
12.01.2008 14:00 3.5 C 95 % 1013.9 hPa 0.0 l/m 2.5 km/h (1 Bft) S-SW 0.00 h 33 W/m 2.7 C 3.4 C 5.4 km/h (1 Bft)
12.01.2008 15:00 3.3 C 94 % 1015.0 hPa 0.0 l/m 3.8 km/h (1 Bft) S-SW 0.00 h 14 W/m 2.4 C 2.9 C 7.2 km/h (2 Bft)
12.01.2008 16:00 3.3 C 94 % 1016.0 hPa 0.0 l/m 3.9 km/h (1 Bft) S 0.00 h 7 W/m 2.4 C 2.8 C 7.3 km/h (2 Bft)
12.01.2008 17:00 3.2 C 93 % 1016.9 hPa 0.0 l/m 3.8 km/h (1 Bft) S 0.00 h 0 W/m 2.2 C 2.7 C 7.6 km/h (2 Bft)
12.01.2008 18:00 3.2 C 93 % 1017.6 hPa 0.0 l/m 3.9 km/h (1 Bft) S-SO 0.00 h 0 W/m 2.2 C 2.8 C 7.3 km/h (2 Bft)
12.01.2008 19:00 3.3 C 92 % 1018.5 hPa 0.0 l/m 2.8 km/h (1 Bft) S-SO 0.00 h 0 W/m 2.1 C 3.0 C 5.4 km/h (1 Bft)
12.01.2008 20:00 3.3 C 92 % 1019.3 hPa 0.0 l/m 1.3 km/h (1 Bft) S-SW 0.00 h 0 W/m 2.1 C 3.3 C 3.6 km/h (1 Bft)
12.01.2008 21:00 3.1 C 92 % 1019.7 hPa 0.0 l/m 1.5 km/h (1 Bft) SW 0.00 h 0 W/m 1.9 C 3.1 C 3.5 km/h (1 Bft)
12.01.2008 22:00 2.9 C 93 % 1019.9 hPa 0.0 l/m 1.7 km/h (1 Bft) SO 0.00 h 0 W/m 1.8 C 2.8 C 2.9 km/h (1 Bft)
12.01.2008 23:00 2.7 C 93 % 1020.3 hPa 0.0 l/m 1.0 km/h (0 Bft) O-SO 0.00 h 0 W/m 1.7 C 2.7 C 2.2 km/h (1 Bft)
13.01.2008 00:00 2.7 C 94 % 1020.3 hPa 0.0 l/m 1.6 km/h (1 Bft) O-SO 0.00 h 0 W/m 1.8 C 2.6 C 2.7 km/h (1 Bft)
13.01.2008 01:00 2.6 C 94 % 1020.3 hPa 0.0 l/m 0.8 km/h (0 Bft) SO 0.00 h 0 W/m 1.7 C 2.5 C 1.5 km/h (1 Bft)
13.01.2008 02:00 2.4 C 94 % 1020.3 hPa 0.0 l/m 0.0 km/h (0 Bft) N 0.00 h 0 W/m 1.6 C 2.4 C 0.1 km/h (0 Bft)
13.01.2008 03:00 2.1 C 95 % 1020.2 hPa 0.0 l/m 0.3 km/h (0 Bft) SO 0.00 h 0 W/m 1.4 C 2.1 C 0.6 km/h (0 Bft)
13.01.2008 04:00 2.2 C 96 % 1020.3 hPa 0.0 l/m 0.2 km/h (0 Bft) SO 0.00 h 0 W/m 1.6 C 2.2 C 0.7 km/h (0 Bft)
13.01.2008 05:00 2.3 C 97 % 1020.4 hPa 0.0 l/m 0.6 km/h (0 Bft) O-NO 0.00 h 0 W/m 1.8 C 2.3 C 2.0 km/h (1 Bft)
13.01.2008 06:00 2.4 C 96 % 1020.7 hPa 0.0 l/m 0.9 km/h (0 Bft) O-NO 0.00 h 0 W/m 1.8 C 2.4 C 2.3 km/h (1 Bft)
13.01.2008 07:00 2.3 C 95 % 1020.6 hPa 0.0 l/m 0.2 km/h (0 Bft) O-NO 0.00 h 0 W/m 1.6 C 2.3 C 0.8 km/h (0 Bft)
13.01.2008 08:00 2.0 C 94 % 1020.4 hPa 0.0 l/m 0.2 km/h (0 Bft) O-NO 0.00 h 16 W/m 1.1 C 2.0 C 0.5 km/h (0 Bft)
13.01.2008 09:00 2.0 C 93 % 1020.3 hPa 0.0 l/m 0.5 km/h (0 Bft) O-NO 0.00 h 45 W/m 1.0 C 2.0 C 1.1 km/h (1 Bft)
13.01.2008 10:00 2.3 C 92 % 1020.0 hPa 0.0 l/m 0.2 km/h (0 Bft) O-SO 0.00 h 68 W/m 1.2 C 2.3 C 0.5 km/h (0 Bft)
13.01.2008 11:00 3.2 C 87 % 1019.2 hPa 0.0 l/m 1.3 km/h (1 Bft) O-SO 0.00 h 103 W/m 1.2 C 3.1 C 2.8 km/h (1 Bft)
13.01.2008 12:00 3.5 C 83 % 1018.0 hPa 0.0 l/m 5.5 km/h (1 Bft) O-SO 0.00 h 54 W/m 0.8 C 2.4 C 9.7 km/h (2 Bft)
13.01.2008 13:00 3.3 C 83 % 1017.4 hPa 0.0 l/m 3.6 km/h (1 Bft) O 0.00 h 44 W/m 0.7 C 2.7 C 7.1 km/h (2 Bft)
13.01.2008 14:00 3.5 C 82 % 1017.1 hPa 0.0 l/m 1.5 km/h (1 Bft) O 0.00 h 48 W/m 0.7 C 3.4 C 3.5 km/h (1 Bft)
13.01.2008 15:00 3.8 C 81 % 1017.0 hPa 0.0 l/m 1.5 km/h (1 Bft) O-SO 0.00 h 25 W/m 0.8 C 3.8 C 3.1 km/h (1 Bft)
13.01.2008 16:00 3.8 C 82 % 1016.9 hPa 0.0 l/m 0.5 km/h (0 Bft) O-SO 0.00 h 9 W/m 1.0 C 3.8 C 1.2 km/h (1 Bft)
13.01.2008 17:00 3.4 C 84 % 1016.6 hPa 0.0 l/m 1.4 km/h (1 Bft) SO 0.00 h 0 W/m 1.0 C 3.3 C 2.7 km/h (1 Bft)
13.01.2008 18:00 3.2 C 84 % 1016.5 hPa 0.0 l/m 3.4 km/h (1 Bft) O-SO 0.00 h 0 W/m 0.8 C 2.7 C 5.0 km/h (1 Bft)
13.01.2008 19:00 3.1 C 86 % 1016.5 hPa 0.0 l/m 0.4 km/h (0 Bft) O-SO 0.00 h 0 W/m 0.9 C 3.1 C 1.1 km/h (1 Bft)
13.01.2008 20:00 2.7 C 86 % 1016.3 hPa 0.0 l/m 0.7 km/h (0 Bft) O-SO 0.00 h 0 W/m 0.6 C 2.7 C 1.5 km/h (1 Bft)
13.01.2008 21:00 2.2 C 88 % 1015.9 hPa 0.0 l/m 0.7 km/h (0 Bft) O-SO 0.00 h 0 W/m 0.4 C 2.2 C 1.5 km/h (1 Bft)
13.01.2008 22:00 1.9 C 89 % 1015.3 hPa 0.0 l/m 0.4 km/h (0 Bft) O-SO 0.00 h 0 W/m 0.3 C 1.9 C 1.2 km/h (1 Bft)
13.01.2008 23:00 2.2 C 88 % 1015.0 hPa 0.0 l/m 0.5 km/h (0 Bft) S 0.00 h 0 W/m 0.4 C 2.2 C 1.4 km/h (1 Bft)
Min-Datum _ 09.01.08 07.01.08 12.01.08 - 07.01.08 - - - 09.01.08 09.01.08 07.01.08
_ Min-Zeit 00:14 14:45 01:15 - 00:00 - - - 00:14 03:18 00:02
Minimum _ -2.1 C 62 % 1003.8 hPa - 0.0 km/h (0 Bft) - - - -2.5 C -3.5 C 0.0 km/h (0 Bft)
Max-Datum _ 07.01.08 07.01.08 08.01.08 07.01.08 07.01.08 - 07.01.08 07.01.08 07.01.08 07.01.08 07.01.08
_ Max-Zeit 14:20 08:38 09:15 08:00 12:29 - 11:35 11:56 10:10 14:20 12:26
Maximum _ 10.7 C 100 % 1027.7 hPa 3.4 l/m 37.5 km/h
W (5 Bft)
- 0.02 h 434 W/m 8.9 C 10.7 C 55.6 km/h
W (7 Bft)
Durchschnitt _ 3.0 C 90 % 1018.6 hPa #14.0 l/m 2.4 km/h (1 Bft) O-SO #17:23 h 87 W/m 1.5 C 2.8 C 4.2 km/h (1 Bft)
© Kaiko 2008